PBD6562 USTR-UUEE
Flight info
| Callsign | PBD6562 |
|---|---|
| Flight time | N/A |
| Altitude | 36000 |
| Route | BEPAR1R BEPAR T448 BANAM T348 EKB M864 AGNOK T796 ORTIM L158 DIMGI DIMGI3E |
| Aircraft | B738/M-SADFGHIJ4RWY/HB1 |
Departure
| Time | 2026-04-26 09:10 |
|---|---|
| Airport | Roshchino International Airport (USTR) |
Arrival
| Time | N/A |
|---|---|
| Airport | Sheremetyevo International Airport (UUEE) |
| Time | Latitude | Longitude | Altitude | Speed | Heading |
|---|---|---|---|---|---|
| 2026-04-26 08:53 | 57.18077 | 65.34796 | 334 ft | 0 kts | 45° |
| 2026-04-26 08:59 | 57.18071 | 65.34786 | 339 ft | 4 kts | 45° |
| 2026-04-26 09:00 | 57.18053 | 65.34750 | 335 ft | 4 kts | 45° |
| 2026-04-26 09:00 | 57.18033 | 65.34721 | 339 ft | 4 kts | 8° |
| 2026-04-26 09:00 | 57.18010 | 65.34729 | 336 ft | 4 kts | 323° |
| 2026-04-26 09:00 | 57.18001 | 65.34741 | 338 ft | 1 kts | 314° |
| 2026-04-26 09:01 | 57.17999 | 65.34746 | 334 ft | 0 kts | 314° |
| 2026-04-26 09:02 | 57.18011 | 65.34723 | 335 ft | 7 kts | 314° |
| 2026-04-26 09:03 | 57.18069 | 65.34615 | 339 ft | 16 kts | 314° |
| 2026-04-26 09:03 | 57.18170 | 65.34429 | 339 ft | 25 kts | 314° |
| 2026-04-26 09:03 | 57.18308 | 65.34173 | 338 ft | 32 kts | 315° |
| 2026-04-26 09:03 | 57.18478 | 65.33859 | 336 ft | 37 kts | 315° |
| 2026-04-26 09:04 | 57.18618 | 65.33536 | 339 ft | 24 kts | 264° |
| 2026-04-26 09:04 | 57.18568 | 65.33266 | 335 ft | 23 kts | 226° |
| 2026-04-26 09:04 | 57.18477 | 65.33037 | 332 ft | 23 kts | 262° |
| 2026-04-26 09:04 | 57.18469 | 65.32721 | 327 ft | 28 kts | 268° |
| 2026-04-26 09:05 | 57.18464 | 65.32316 | 329 ft | 32 kts | 266° |
| 2026-04-26 09:05 | 57.18523 | 65.32093 | 332 ft | 19 kts | 318° |
| 2026-04-26 09:05 | 57.18596 | 65.31972 | 332 ft | 0 kts | 318° |
| 2026-04-26 09:05 | 57.18600 | 65.31965 | 331 ft | 3 kts | 318° |
| 2026-04-26 09:06 | 57.18632 | 65.31912 | 331 ft | 0 kts | 317° |
| 2026-04-26 09:06 | 57.18634 | 65.31909 | 332 ft | 3 kts | 317° |
| 2026-04-26 09:06 | 57.18669 | 65.31851 | 334 ft | 10 kts | 317° |
| 2026-04-26 09:06 | 57.18706 | 65.31740 | 339 ft | 10 kts | 261° |
| 2026-04-26 09:07 | 57.18687 | 65.31683 | 345 ft | 0 kts | 227° |
| 2026-04-26 09:09 | 57.18657 | 65.31622 | 345 ft | 28 kts | 227° |
| 2026-04-26 09:09 | 57.18364 | 65.31029 | 359 ft | 96 kts | 227° |
| 2026-04-26 09:10 | 57.17781 | 65.29844 | 381 ft | 151 kts | 231° |
| 2026-04-26 09:10 | 57.17061 | 65.28334 | 965 ft | 152 kts | 232° |
| 2026-04-26 09:10 | 57.16495 | 65.26742 | 1728 ft | 155 kts | 262° |
| 2026-04-26 09:10 | 57.16417 | 65.24792 | 2362 ft | 155 kts | 268° |
| 2026-04-26 09:11 | 57.16381 | 65.22816 | 3022 ft | 158 kts | 268° |
| 2026-04-26 09:11 | 57.16338 | 65.20726 | 3607 ft | 166 kts | 267° |
| 2026-04-26 09:11 | 57.16289 | 65.18532 | 4077 ft | 180 kts | 268° |
| 2026-04-26 09:11 | 57.16244 | 65.16109 | 4301 ft | 200 kts | 268° |
| 2026-04-26 09:12 | 57.16197 | 65.13411 | 4495 ft | 223 kts | 268° |
| 2026-04-26 09:12 | 57.16142 | 65.10419 | 4864 ft | 240 kts | 268° |
| 2026-04-26 09:12 | 57.16080 | 65.07325 | 5572 ft | 244 kts | 267° |
| 2026-04-26 09:12 | 57.16013 | 65.04166 | 6267 ft | 247 kts | 267° |
| 2026-04-26 09:13 | 57.15942 | 65.00989 | 6970 ft | 250 kts | 267° |
| 2026-04-26 09:13 | 57.15867 | 64.97760 | 7660 ft | 253 kts | 267° |
| 2026-04-26 09:13 | 57.15792 | 64.94548 | 8369 ft | 255 kts | 266° |
| 2026-04-26 09:13 | 57.15713 | 64.91268 | 9075 ft | 258 kts | 266° |
| 2026-04-26 09:14 | 57.15631 | 64.87948 | 9764 ft | 261 kts | 266° |
| 2026-04-26 09:14 | 57.15547 | 64.84594 | 10399 ft | 263 kts | 266° |
| 2026-04-26 09:14 | 57.15460 | 64.81188 | 10876 ft | 274 kts | 266° |
| 2026-04-26 09:14 | 57.15365 | 64.77542 | 11040 ft | 295 kts | 266° |
| 2026-04-26 09:15 | 57.15263 | 64.73636 | 11208 ft | 314 kts | 266° |
| 2026-04-26 09:15 | 57.15155 | 64.69534 | 11568 ft | 326 kts | 266° |
| 2026-04-26 09:15 | 57.15044 | 64.65339 | 12160 ft | 330 kts | 266° |
| 2026-04-26 09:15 | 57.14931 | 64.61095 | 12848 ft | 333 kts | 266° |
| 2026-04-26 09:16 | 57.14815 | 64.56818 | 13522 ft | 336 kts | 266° |
| 2026-04-26 09:16 | 57.14695 | 64.52495 | 14146 ft | 339 kts | 266° |
| 2026-04-26 09:16 | 57.14572 | 64.48141 | 14778 ft | 342 kts | 266° |
| 2026-04-26 09:16 | 57.14442 | 64.43744 | 15409 ft | 345 kts | 265° |
| 2026-04-26 09:17 | 57.14306 | 64.39298 | 16038 ft | 349 kts | 265° |
| 2026-04-26 09:17 | 57.14169 | 64.34871 | 16651 ft | 352 kts | 265° |
| 2026-04-26 09:17 | 57.14028 | 64.30353 | 17287 ft | 355 kts | 266° |
| 2026-04-26 09:17 | 57.13900 | 64.25797 | 17934 ft | 358 kts | 266° |
| 2026-04-26 09:18 | 57.13765 | 64.21193 | 18440 ft | 362 kts | 266° |
| 2026-04-26 09:18 | 57.13580 | 64.16558 | 18989 ft | 364 kts | 265° |
| 2026-04-26 09:18 | 57.13413 | 64.11888 | 19541 ft | 366 kts | 266° |
| 2026-04-26 09:18 | 57.13266 | 64.07206 | 20109 ft | 368 kts | 266° |
| 2026-04-26 09:19 | 57.13119 | 64.02496 | 20634 ft | 370 kts | 266° |
| 2026-04-26 09:19 | 57.12966 | 63.97736 | 21141 ft | 373 kts | 266° |
| 2026-04-26 09:19 | 57.12808 | 63.92949 | 21642 ft | 376 kts | 266° |
| 2026-04-26 09:19 | 57.12646 | 63.88131 | 22163 ft | 378 kts | 266° |
| 2026-04-26 09:20 | 57.12478 | 63.83285 | 22660 ft | 380 kts | 266° |
| 2026-04-26 09:20 | 57.12307 | 63.78409 | 23152 ft | 383 kts | 266° |
| 2026-04-26 09:20 | 57.12050 | 63.73515 | 23533 ft | 386 kts | 261° |
| 2026-04-26 09:20 | 57.11532 | 63.68630 | 23892 ft | 389 kts | 258° |
| 2026-04-26 09:21 | 57.10974 | 63.63819 | 24242 ft | 391 kts | 258° |
| 2026-04-26 09:21 | 57.10365 | 63.58923 | 24611 ft | 393 kts | 258° |
| 2026-04-26 09:21 | 57.09759 | 63.54001 | 24957 ft | 396 kts | 258° |
| 2026-04-26 09:21 | 57.09155 | 63.49042 | 25303 ft | 398 kts | 258° |
| 2026-04-26 09:22 | 57.08554 | 63.44055 | 25643 ft | 400 kts | 258° |
| 2026-04-26 09:22 | 57.07955 | 63.39055 | 25985 ft | 402 kts | 258° |
| 2026-04-26 09:22 | 57.07354 | 63.34015 | 26298 ft | 405 kts | 258° |
| 2026-04-26 09:22 | 57.06750 | 63.28952 | 26642 ft | 407 kts | 258° |
| 2026-04-26 09:23 | 57.06143 | 63.23869 | 26953 ft | 409 kts | 258° |
| 2026-04-26 09:23 | 57.05530 | 63.18757 | 27255 ft | 411 kts | 258° |
| 2026-04-26 09:23 | 57.04911 | 63.13609 | 27547 ft | 413 kts | 258° |
| 2026-04-26 09:23 | 57.04286 | 63.08430 | 27839 ft | 415 kts | 258° |
| 2026-04-26 09:24 | 57.03659 | 63.03245 | 28164 ft | 417 kts | 258° |
| 2026-04-26 09:24 | 57.03026 | 62.98042 | 28439 ft | 419 kts | 258° |
| 2026-04-26 09:24 | 57.02395 | 62.92878 | 28687 ft | 421 kts | 257° |
| 2026-04-26 09:24 | 57.01749 | 62.87611 | 28971 ft | 423 kts | 257° |
| 2026-04-26 09:25 | 57.01101 | 62.82352 | 29338 ft | 422 kts | 257° |
| 2026-04-26 09:25 | 57.00452 | 62.77096 | 29788 ft | 420 kts | 257° |
| 2026-04-26 09:25 | 56.99804 | 62.71871 | 30118 ft | 419 kts | 257° |
| 2026-04-26 09:25 | 56.99155 | 62.66653 | 30367 ft | 420 kts | 257° |
| 2026-04-26 09:26 | 56.98501 | 62.61421 | 30606 ft | 421 kts | 257° |
| 2026-04-26 09:26 | 56.97844 | 62.56182 | 30893 ft | 421 kts | 257° |
| 2026-04-26 09:26 | 56.97185 | 62.50944 | 31172 ft | 420 kts | 257° |
| 2026-04-26 09:26 | 56.96528 | 62.45732 | 31498 ft | 419 kts | 257° |
| 2026-04-26 09:27 | 56.95869 | 62.40533 | 31783 ft | 419 kts | 257° |
| 2026-04-26 09:27 | 56.95216 | 62.35401 | 32013 ft | 420 kts | 257° |
| 2026-04-26 09:27 | 56.94550 | 62.30189 | 32245 ft | 420 kts | 257° |
| 2026-04-26 09:27 | 56.93883 | 62.24980 | 32521 ft | 420 kts | 257° |
| 2026-04-26 09:28 | 56.93211 | 62.19757 | 32786 ft | 419 kts | 256° |
| 2026-04-26 09:28 | 56.92541 | 62.14558 | 33032 ft | 420 kts | 256° |
| 2026-04-26 09:28 | 56.91865 | 62.09343 | 33273 ft | 420 kts | 256° |
| 2026-04-26 09:28 | 56.91190 | 62.04145 | 33519 ft | 420 kts | 256° |
| 2026-04-26 09:29 | 56.90513 | 61.98954 | 33754 ft | 420 kts | 256° |
| 2026-04-26 09:29 | 56.89832 | 61.93756 | 33948 ft | 420 kts | 256° |
| 2026-04-26 09:29 | 56.89151 | 61.88566 | 34160 ft | 419 kts | 256° |
| 2026-04-26 09:29 | 56.88476 | 61.83445 | 34357 ft | 419 kts | 256° |
| 2026-04-26 09:30 | 56.87791 | 61.78265 | 34530 ft | 420 kts | 256° |
| 2026-04-26 09:30 | 56.87092 | 61.73004 | 34694 ft | 420 kts | 256° |
| 2026-04-26 09:30 | 56.86407 | 61.67862 | 34771 ft | 423 kts | 256° |
| 2026-04-26 09:30 | 56.85706 | 61.62614 | 34890 ft | 424 kts | 256° |
| 2026-04-26 09:31 | 56.85004 | 61.57381 | 35112 ft | 423 kts | 256° |
| 2026-04-26 09:31 | 56.84302 | 61.52164 | 35353 ft | 421 kts | 256° |
| 2026-04-26 09:31 | 56.83602 | 61.46981 | 35571 ft | 420 kts | 256° |
| 2026-04-26 09:31 | 56.82901 | 61.41803 | 35719 ft | 420 kts | 256° |
| 2026-04-26 09:32 | 56.82204 | 61.36677 | 35768 ft | 422 kts | 256° |
| 2026-04-26 09:32 | 56.80776 | 61.26235 | 35778 ft | 423 kts | 255° |
| 2026-04-26 09:33 | 56.79346 | 61.15841 | 35781 ft | 421 kts | 255° |
| 2026-04-26 09:33 | 56.77915 | 61.05496 | 35790 ft | 420 kts | 255° |
| 2026-04-26 09:34 | 56.76478 | 60.95193 | 35789 ft | 419 kts | 255° |
| 2026-04-26 09:34 | 56.75047 | 60.84903 | 35804 ft | 418 kts | 258° |
| 2026-04-26 09:35 | 56.74619 | 60.74415 | 35796 ft | 420 kts | 274° |
| 2026-04-26 09:35 | 56.75360 | 60.63853 | 35802 ft | 421 kts | 276° |
| 2026-04-26 09:36 | 56.76145 | 60.53251 | 35806 ft | 422 kts | 276° |
| 2026-04-26 09:36 | 56.76893 | 60.42600 | 35805 ft | 424 kts | 275° |
| 2026-04-26 09:37 | 56.77621 | 60.31911 | 35803 ft | 425 kts | 275° |
| 2026-04-26 09:37 | 56.78338 | 60.21258 | 35807 ft | 426 kts | 275° |
| 2026-04-26 09:38 | 56.79046 | 60.10499 | 35812 ft | 427 kts | 275° |
| 2026-04-26 09:38 | 56.79703 | 59.99724 | 35808 ft | 427 kts | 275° |
| 2026-04-26 09:39 | 56.80345 | 59.88951 | 35829 ft | 427 kts | 275° |
| 2026-04-26 09:39 | 56.80982 | 59.78179 | 35819 ft | 427 kts | 275° |
| 2026-04-26 09:40 | 56.81611 | 59.67424 | 35821 ft | 425 kts | 275° |
| 2026-04-26 09:40 | 56.82229 | 59.56703 | 35825 ft | 424 kts | 275° |
| 2026-04-26 09:41 | 56.82833 | 59.46081 | 35827 ft | 423 kts | 275° |
| 2026-04-26 09:41 | 56.83333 | 59.37141 | 35828 ft | 422 kts | 274° |
| 2026-04-26 09:42 | 56.83918 | 59.26552 | 35833 ft | 420 kts | 274° |
| 2026-04-26 09:42 | 56.84496 | 59.15939 | 35835 ft | 420 kts | 274° |
| 2026-04-26 09:43 | 56.85048 | 59.05320 | 35835 ft | 419 kts | 273° |
| 2026-04-26 09:43 | 56.85306 | 58.94689 | 35842 ft | 419 kts | 271° |
| 2026-04-26 09:44 | 56.85456 | 58.84036 | 35837 ft | 419 kts | 271° |
| 2026-04-26 09:44 | 56.85612 | 58.73366 | 35847 ft | 420 kts | 271° |
| 2026-04-26 09:45 | 56.85779 | 58.62755 | 35846 ft | 421 kts | 271° |
| 2026-04-26 09:45 | 56.85946 | 58.52057 | 35844 ft | 421 kts | 271° |
| 2026-04-26 09:46 | 56.86106 | 58.41340 | 35849 ft | 422 kts | 271° |
| 2026-04-26 09:46 | 56.86256 | 58.30613 | 35850 ft | 422 kts | 271° |
| 2026-04-26 09:47 | 56.86397 | 58.19934 | 35849 ft | 422 kts | 270° |
| 2026-04-26 09:47 | 56.86529 | 58.09204 | 35857 ft | 423 kts | 270° |
| 2026-04-26 09:48 | 56.86651 | 57.98461 | 35854 ft | 423 kts | 270° |
| 2026-04-26 09:48 | 56.86765 | 57.87693 | 35850 ft | 423 kts | 270° |
| 2026-04-26 09:49 | 56.86869 | 57.76929 | 35850 ft | 423 kts | 270° |
| 2026-04-26 09:49 | 56.86964 | 57.66272 | 35847 ft | 422 kts | 270° |
| 2026-04-26 09:50 | 56.87050 | 57.55541 | 35835 ft | 422 kts | 270° |
| 2026-04-26 09:50 | 56.87126 | 57.44785 | 35836 ft | 422 kts | 270° |
| 2026-04-26 09:51 | 56.87194 | 57.34065 | 35839 ft | 421 kts | 270° |
| 2026-04-26 09:51 | 56.87252 | 57.23356 | 35834 ft | 421 kts | 270° |
| 2026-04-26 09:52 | 56.87300 | 57.12736 | 35834 ft | 420 kts | 270° |
| 2026-04-26 09:52 | 56.87356 | 56.96731 | 35833 ft | 419 kts | 270° |
| 2026-04-26 09:53 | 56.87383 | 56.86077 | 35839 ft | 419 kts | 270° |
| 2026-04-26 09:53 | 56.87400 | 56.75416 | 35830 ft | 419 kts | 270° |
| 2026-04-26 09:54 | 56.87408 | 56.64848 | 35825 ft | 418 kts | 270° |
| 2026-04-26 09:54 | 56.87409 | 56.54203 | 35822 ft | 418 kts | 270° |
| 2026-04-26 09:55 | 56.87401 | 56.43562 | 35808 ft | 418 kts | 270° |
| 2026-04-26 09:55 | 56.87483 | 56.32943 | 35817 ft | 418 kts | 271° |
| 2026-04-26 09:56 | 56.87588 | 56.22382 | 35820 ft | 418 kts | 271° |
| 2026-04-26 09:56 | 56.87672 | 56.11751 | 35814 ft | 418 kts | 270° |
| 2026-04-26 09:57 | 56.87742 | 56.01125 | 35818 ft | 418 kts | 270° |
| 2026-04-26 09:57 | 56.87367 | 55.90528 | 35830 ft | 419 kts | 259° |
| 2026-04-26 09:58 | 56.85508 | 55.80418 | 35822 ft | 421 kts | 249° |
| 2026-04-26 09:58 | 56.83201 | 55.70564 | 35840 ft | 421 kts | 249° |
| 2026-04-26 09:59 | 56.80897 | 55.60707 | 35826 ft | 422 kts | 249° |
| 2026-04-26 09:59 | 56.78608 | 55.50858 | 35836 ft | 421 kts | 249° |
| 2026-04-26 10:00 | 56.76321 | 55.41019 | 35833 ft | 421 kts | 249° |
| 2026-04-26 10:00 | 56.74043 | 55.31257 | 35836 ft | 421 kts | 249° |
| 2026-04-26 10:01 | 56.71743 | 55.21452 | 35835 ft | 421 kts | 249° |
| 2026-04-26 10:01 | 56.69438 | 55.11669 | 35840 ft | 420 kts | 249° |
| 2026-04-26 10:02 | 56.67126 | 55.01897 | 35849 ft | 420 kts | 249° |
| 2026-04-26 10:02 | 56.64807 | 54.92146 | 35849 ft | 420 kts | 248° |
| 2026-04-26 10:03 | 56.62483 | 54.82410 | 35855 ft | 420 kts | 248° |
| 2026-04-26 10:03 | 56.60166 | 54.72753 | 35849 ft | 419 kts | 248° |
| 2026-04-26 10:04 | 56.57829 | 54.63055 | 35864 ft | 419 kts | 248° |
| 2026-04-26 10:04 | 56.55483 | 54.53359 | 35861 ft | 419 kts | 248° |
| 2026-04-26 10:05 | 56.53135 | 54.43696 | 35871 ft | 419 kts | 248° |
| 2026-04-26 10:05 | 56.50782 | 54.34052 | 35872 ft | 419 kts | 248° |
| 2026-04-26 10:06 | 56.48415 | 54.24406 | 35858 ft | 419 kts | 248° |
| 2026-04-26 10:06 | 56.46041 | 54.14795 | 35870 ft | 418 kts | 248° |
| 2026-04-26 10:07 | 56.43662 | 54.05191 | 35873 ft | 418 kts | 248° |
| 2026-04-26 10:07 | 56.41278 | 53.95612 | 35877 ft | 418 kts | 248° |
| 2026-04-26 10:08 | 56.38900 | 53.86037 | 35872 ft | 418 kts | 248° |
| 2026-04-26 10:08 | 56.36519 | 53.76469 | 35872 ft | 418 kts | 248° |
| 2026-04-26 10:09 | 56.34149 | 53.66982 | 35866 ft | 417 kts | 248° |
| 2026-04-26 10:09 | 56.31741 | 53.57469 | 35870 ft | 417 kts | 248° |
| 2026-04-26 10:10 | 56.29290 | 53.48005 | 35871 ft | 416 kts | 247° |
| 2026-04-26 10:10 | 56.26835 | 53.38569 | 35866 ft | 416 kts | 247° |
| 2026-04-26 10:11 | 56.24382 | 53.29154 | 35868 ft | 416 kts | 247° |
| 2026-04-26 10:11 | 56.21925 | 53.19757 | 35854 ft | 415 kts | 248° |
| 2026-04-26 10:12 | 56.19466 | 53.10389 | 35859 ft | 414 kts | 248° |
| 2026-04-26 10:12 | 56.17005 | 53.01048 | 35865 ft | 414 kts | 247° |
| 2026-04-26 10:13 | 56.14537 | 52.91724 | 35863 ft | 414 kts | 247° |
| 2026-04-26 10:13 | 56.12064 | 52.82416 | 35864 ft | 413 kts | 247° |
| 2026-04-26 10:14 | 56.09603 | 52.73186 | 35857 ft | 413 kts | 247° |
| 2026-04-26 10:14 | 56.07101 | 52.63842 | 35856 ft | 414 kts | 247° |
| 2026-04-26 10:15 | 56.04629 | 52.54605 | 35854 ft | 413 kts | 247° |
| 2026-04-26 10:15 | 56.02155 | 52.45329 | 35848 ft | 414 kts | 247° |
| 2026-04-26 10:16 | 55.99667 | 52.36028 | 35854 ft | 414 kts | 247° |
| 2026-04-26 10:16 | 55.97172 | 52.26744 | 35850 ft | 414 kts | 247° |
| 2026-04-26 10:17 | 55.94671 | 52.17481 | 35839 ft | 414 kts | 247° |
| 2026-04-26 10:17 | 55.92172 | 52.08265 | 35850 ft | 413 kts | 247° |
| 2026-04-26 10:18 | 55.89663 | 51.99047 | 35847 ft | 413 kts | 247° |
| 2026-04-26 10:18 | 55.87169 | 51.89920 | 35855 ft | 412 kts | 247° |
| 2026-04-26 10:19 | 55.84657 | 51.80762 | 35849 ft | 412 kts | 247° |
| 2026-04-26 10:19 | 55.82137 | 51.71614 | 35834 ft | 411 kts | 246° |
| 2026-04-26 10:20 | 55.80042 | 51.64036 | 35837 ft | 410 kts | 246° |
| 2026-04-26 10:20 | 55.77096 | 51.53418 | 35838 ft | 409 kts | 246° |
| 2026-04-26 10:21 | 55.74573 | 51.44356 | 35841 ft | 409 kts | 246° |
| 2026-04-26 10:21 | 55.72161 | 51.35224 | 35836 ft | 407 kts | 249° |
| 2026-04-26 10:22 | 55.69995 | 51.25957 | 35820 ft | 407 kts | 250° |
| 2026-04-26 10:22 | 55.67846 | 51.16694 | 35828 ft | 406 kts | 250° |
| 2026-04-26 10:23 | 55.65684 | 51.07501 | 35834 ft | 406 kts | 250° |
| 2026-04-26 10:23 | 55.63494 | 50.98274 | 35829 ft | 406 kts | 249° |
| 2026-04-26 10:24 | 55.61290 | 50.89045 | 35838 ft | 407 kts | 249° |
| 2026-04-26 10:24 | 55.59079 | 50.79826 | 35833 ft | 407 kts | 249° |
| 2026-04-26 10:25 | 55.56858 | 50.70601 | 35826 ft | 408 kts | 249° |
| 2026-04-26 10:25 | 55.54629 | 50.61386 | 35824 ft | 408 kts | 249° |
| 2026-04-26 10:26 | 55.52407 | 50.52233 | 35832 ft | 408 kts | 249° |
| 2026-04-26 10:26 | 55.50165 | 50.43039 | 35827 ft | 408 kts | 249° |
| 2026-04-26 10:27 | 55.47915 | 50.33851 | 35831 ft | 407 kts | 249° |
| 2026-04-26 10:27 | 55.45661 | 50.24684 | 35814 ft | 407 kts | 249° |
| 2026-04-26 10:28 | 55.43401 | 50.15525 | 35820 ft | 407 kts | 249° |
| 2026-04-26 10:28 | 55.41154 | 50.06458 | 35828 ft | 406 kts | 249° |
| 2026-04-26 10:29 | 55.39465 | 49.97045 | 35835 ft | 403 kts | 262° |
| 2026-04-26 10:29 | 55.39211 | 49.87220 | 35823 ft | 402 kts | 274° |
| 2026-04-26 10:30 | 55.39634 | 49.79076 | 35824 ft | 402 kts | 275° |
| 2026-04-26 10:30 | 55.40149 | 49.69260 | 35822 ft | 402 kts | 274° |
| 2026-04-26 10:31 | 55.40631 | 49.59436 | 35810 ft | 402 kts | 274° |
| 2026-04-26 10:31 | 55.41091 | 49.49679 | 35816 ft | 402 kts | 274° |
| 2026-04-26 10:32 | 55.41547 | 49.39850 | 35812 ft | 403 kts | 274° |
| 2026-04-26 10:32 | 55.41994 | 49.30010 | 35809 ft | 403 kts | 274° |
| 2026-04-26 10:33 | 55.42433 | 49.20167 | 35810 ft | 403 kts | 274° |
| 2026-04-26 10:33 | 55.42866 | 49.10316 | 35804 ft | 404 kts | 274° |
| 2026-04-26 10:34 | 55.43288 | 49.00524 | 35810 ft | 404 kts | 274° |
| 2026-04-26 10:34 | 55.43707 | 48.90636 | 35802 ft | 405 kts | 274° |
| 2026-04-26 10:35 | 55.44118 | 48.80737 | 35783 ft | 405 kts | 273° |
| 2026-04-26 10:35 | 55.44522 | 48.70815 | 35792 ft | 406 kts | 273° |
| 2026-04-26 10:36 | 55.44917 | 48.60945 | 35777 ft | 405 kts | 273° |
| 2026-04-26 10:36 | 55.45598 | 48.51095 | 35771 ft | 406 kts | 283° |
| 2026-04-26 10:37 | 55.47265 | 48.41587 | 35769 ft | 405 kts | 285° |
| 2026-04-26 10:37 | 55.48944 | 48.32099 | 35773 ft | 404 kts | 285° |
| 2026-04-26 10:38 | 55.50583 | 48.22675 | 35778 ft | 404 kts | 284° |
| 2026-04-26 10:38 | 55.52217 | 48.13174 | 35765 ft | 404 kts | 284° |
| 2026-04-26 10:39 | 55.53837 | 48.03685 | 35760 ft | 403 kts | 284° |
| 2026-04-26 10:39 | 55.55179 | 47.95788 | 35764 ft | 403 kts | 284° |
| 2026-04-26 10:40 | 55.57210 | 47.83767 | 35741 ft | 404 kts | 284° |
| 2026-04-26 10:40 | 55.57469 | 47.82226 | 35743 ft | 404 kts | 284° |
| 2026-04-26 10:41 | 55.60013 | 47.67044 | 35758 ft | 404 kts | 284° |